sensor_id;sensor_type;location;lat;lon;timestamp;pressure;altitude;pressure_sealevel;temperature;humidity
69351;BME280;57106;51.446;-2.606;2023-05-25T00:02:00;102717.15;;;13.93;65.67
69351;BME280;57106;51.446;-2.606;2023-05-25T00:06:50;102720.68;;;14.05;65.51
69351;BME280;57106;51.446;-2.606;2023-05-25T00:09:16;102725.91;;;14.09;65.42
69351;BME280;57106;51.446;-2.606;2023-05-25T00:11:41;102724.97;;;14.20;65.15
69351;BME280;57106;51.446;-2.606;2023-05-25T00:14:07;102727.29;;;14.51;64.15
69351;BME280;57106;51.446;-2.606;2023-05-25T00:16:32;102726.84;;;14.32;64.57
69351;BME280;57106;51.446;-2.606;2023-05-25T00:18:58;102729.07;;;14.18;64.97
69351;BME280;57106;51.446;-2.606;2023-05-25T00:21:24;102730.99;;;13.94;66.09
69351;BME280;57106;51.446;-2.606;2023-05-25T00:23:49;102732.56;;;13.74;66.93
69351;BME280;57106;51.446;-2.606;2023-05-25T00:26:15;102735.62;;;13.74;66.76
69351;BME280;57106;51.446;-2.606;2023-05-25T00:28:40;102731.01;;;14.03;65.98
69351;BME280;57106;51.446;-2.606;2023-05-25T00:31:06;102731.33;;;14.16;65.65
69351;BME280;57106;51.446;-2.606;2023-05-25T00:33:31;102730.94;;;14.00;66.25
69351;BME280;57106;51.446;-2.606;2023-05-25T00:35:57;102737.68;;;13.94;66.49
69351;BME280;57106;51.446;-2.606;2023-05-25T00:38:22;102739.08;;;14.15;65.96
69351;BME280;57106;51.446;-2.606;2023-05-25T00:40:47;102741.87;;;13.80;66.99
69351;BME280;57106;51.446;-2.606;2023-05-25T00:43:13;102738.36;;;13.78;67.19
69351;BME280;57106;51.446;-2.606;2023-05-25T00:45:38;102738.81;;;13.81;67.25
69351;BME280;57106;51.446;-2.606;2023-05-25T00:48:05;102740.76;;;13.66;67.75
69351;BME280;57106;51.446;-2.606;2023-05-25T00:50:36;102736.26;;;13.65;67.80
69351;BME280;57106;51.446;-2.606;2023-05-25T00:52:55;102739.90;;;13.72;67.58
69351;BME280;57106;51.446;-2.606;2023-05-25T00:55:20;102740.79;;;13.90;67.26
69351;BME280;57106;51.446;-2.606;2023-05-25T00:57:47;102737.90;;;13.60;68.04
69351;BME280;57106;51.446;-2.606;2023-05-25T01:00:13;102738.81;;;13.51;68.40
69351;BME280;57106;51.446;-2.606;2023-05-25T01:02:40;102741.32;;;13.38;69.15
69351;BME280;57106;51.446;-2.606;2023-05-25T01:05:05;102742.85;;;13.54;68.74
69351;BME280;57106;51.446;-2.606;2023-05-25T01:07:29;102744.91;;;13.33;69.31
69351;BME280;57106;51.446;-2.606;2023-05-25T01:09:56;102748.74;;;13.44;69.13
69351;BME280;57106;51.446;-2.606;2023-05-25T01:12:19;102751.83;;;13.40;69.42
69351;BME280;57106;51.446;-2.606;2023-05-25T01:14:45;102752.60;;;13.43;69.44
69351;BME280;57106;51.446;-2.606;2023-05-25T01:17:10;102754.21;;;13.46;69.26
69351;BME280;57106;51.446;-2.606;2023-05-25T01:19:35;102753.20;;;13.49;69.41
69351;BME280;57106;51.446;-2.606;2023-05-25T01:22:04;102755.49;;;13.56;69.17
69351;BME280;57106;51.446;-2.606;2023-05-25T01:24:31;102753.91;;;13.46;69.56
69351;BME280;57106;51.446;-2.606;2023-05-25T01:26:55;102751.39;;;13.52;69.22
69351;BME280;57106;51.446;-2.606;2023-05-25T01:29:17;102753.78;;;13.48;69.55
69351;BME280;57106;51.446;-2.606;2023-05-25T01:31:45;102754.37;;;13.47;69.71
69351;BME280;57106;51.446;-2.606;2023-05-25T01:34:08;102754.96;;;13.36;70.01
69351;BME280;57106;51.446;-2.606;2023-05-25T01:36:34;102752.34;;;13.32;70.50
69351;BME280;57106;51.446;-2.606;2023-05-25T01:39:00;102748.90;;;13.31;70.54
69351;BME280;57106;51.446;-2.606;2023-05-25T01:41:25;102755.17;;;13.45;70.23
69351;BME280;57106;51.446;-2.606;2023-05-25T01:43:52;102746.60;;;13.26;70.73
69351;BME280;57106;51.446;-2.606;2023-05-25T01:46:21;102752.53;;;13.29;70.84
69351;BME280;57106;51.446;-2.606;2023-05-25T01:48:53;102753.68;;;13.34;70.83
69351;BME280;57106;51.446;-2.606;2023-05-25T01:51:14;102759.07;;;13.12;71.41
69351;BME280;57106;51.446;-2.606;2023-05-25T01:53:36;102752.20;;;13.02;72.03
69351;BME280;57106;51.446;-2.606;2023-05-25T01:56:01;102751.44;;;13.09;72.31
69351;BME280;57106;51.446;-2.606;2023-05-25T01:58:25;102755.35;;;13.20;71.84
69351;BME280;57106;51.446;-2.606;2023-05-25T02:00:50;102758.57;;;13.21;71.61
69351;BME280;57106;51.446;-2.606;2023-05-25T02:03:15;102762.71;;;12.99;72.45
69351;BME280;57106;51.446;-2.606;2023-05-25T02:05:40;102774.85;;;12.99;72.56
69351;BME280;57106;51.446;-2.606;2023-05-25T02:27:31;102774.56;;;12.65;74.58
69351;BME280;57106;51.446;-2.606;2023-05-25T02:29:57;102781.98;;;12.69;74.67
69351;BME280;57106;51.446;-2.606;2023-05-25T02:32:21;102776.80;;;12.71;74.62
69351;BME280;57106;51.446;-2.606;2023-05-25T02:34:47;102776.34;;;12.86;74.42
69351;BME280;57106;51.446;-2.606;2023-05-25T02:37:13;102776.21;;;12.64;74.97
69351;BME280;57106;51.446;-2.606;2023-05-25T02:39:38;102777.99;;;12.84;74.47
69351;BME280;57106;51.446;-2.606;2023-05-25T02:44:30;102773.92;;;12.93;74.28
69351;BME280;57106;51.446;-2.606;2023-05-25T02:46:55;102777.64;;;12.90;74.30
69351;BME280;57106;51.446;-2.606;2023-05-25T02:49:20;102777.08;;;12.72;75.00
69351;BME280;57106;51.446;-2.606;2023-05-25T02:51:46;102781.30;;;12.91;74.50
69351;BME280;57106;51.446;-2.606;2023-05-25T02:54:12;102778.79;;;12.94;74.24
69351;BME280;57106;51.446;-2.606;2023-05-25T02:56:37;102775.89;;;12.71;75.22
69351;BME280;57106;51.446;-2.606;2023-05-25T02:59:02;102774.87;;;12.73;75.23
69351;BME280;57106;51.446;-2.606;2023-05-25T03:01:30;102774.06;;;12.97;74.52
69351;BME280;57106;51.446;-2.606;2023-05-25T03:03:54;102779.59;;;12.81;74.88
69351;BME280;57106;51.446;-2.606;2023-05-25T03:06:19;102781.02;;;12.73;75.21
69351;BME280;57106;51.446;-2.606;2023-05-25T03:08:45;102782.95;;;12.73;75.36
69351;BME280;57106;51.446;-2.606;2023-05-25T03:11:10;102786.32;;;12.71;75.47
69351;BME280;57106;51.446;-2.606;2023-05-25T03:13:36;102788.45;;;12.60;76.14
69351;BME280;57106;51.446;-2.606;2023-05-25T03:16:02;102787.95;;;12.59;76.16
69351;BME280;57106;51.446;-2.606;2023-05-25T03:18:27;102786.64;;;12.67;75.88
69351;BME280;57106;51.446;-2.606;2023-05-25T03:20:52;102789.13;;;12.72;75.46
69351;BME280;57106;51.446;-2.606;2023-05-25T03:23:18;102792.13;;;12.85;75.02
69351;BME280;57106;51.446;-2.606;2023-05-25T03:33:00;102792.39;;;13.12;74.01
69351;BME280;57106;51.446;-2.606;2023-05-25T03:35:25;102794.83;;;12.88;74.75
69351;BME280;57106;51.446;-2.606;2023-05-25T03:37:50;102792.39;;;12.99;74.77
69351;BME280;57106;51.446;-2.606;2023-05-25T03:40:17;102794.54;;;12.85;75.04
69351;BME280;57106;51.446;-2.606;2023-05-25T03:42:42;102797.83;;;12.82;75.45
69351;BME280;57106;51.446;-2.606;2023-05-25T03:45:08;102792.64;;;12.71;75.74
69351;BME280;57106;51.446;-2.606;2023-05-25T03:47:33;102790.86;;;12.81;75.47
69351;BME280;57106;51.446;-2.606;2023-05-25T03:52:24;102790.70;;;12.81;75.40
69351;BME280;57106;51.446;-2.606;2023-05-25T03:54:49;102791.58;;;12.89;75.22
69351;BME280;57106;51.446;-2.606;2023-05-25T03:57:15;102797.50;;;12.65;75.92
69351;BME280;57106;51.446;-2.606;2023-05-25T03:59:40;102798.74;;;12.70;76.09
69351;BME280;57106;51.446;-2.606;2023-05-25T04:02:06;102799.04;;;12.59;76.29
69351;BME280;57106;51.446;-2.606;2023-05-25T04:04:32;102796.25;;;12.62;76.13
69351;BME280;57106;51.446;-2.606;2023-05-25T04:06:57;102795.30;;;12.91;75.39
69351;BME280;57106;51.446;-2.606;2023-05-25T04:09:23;102795.65;;;12.94;75.27
69351;BME280;57106;51.446;-2.606;2023-05-25T04:11:48;102798.62;;;12.80;75.36
69351;BME280;57106;51.446;-2.606;2023-05-25T04:14:14;102803.97;;;12.83;75.56
69351;BME280;57106;51.446;-2.606;2023-05-25T04:16:40;102801.68;;;12.57;76.47
69351;BME280;57106;51.446;-2.606;2023-05-25T04:19:05;102804.33;;;12.89;75.44
69351;BME280;57106;51.446;-2.606;2023-05-25T04:21:30;102812.96;;;12.56;76.69
69351;BME280;57106;51.446;-2.606;2023-05-25T04:23:56;102809.02;;;12.73;76.53
69351;BME280;57106;51.446;-2.606;2023-05-25T04:26:22;102811.77;;;12.68;76.54
69351;BME280;57106;51.446;-2.606;2023-05-25T04:28:47;102817.88;;;12.49;77.10
69351;BME280;57106;51.446;-2.606;2023-05-25T04:31:13;102815.24;;;12.78;76.38
69351;BME280;57106;51.446;-2.606;2023-05-25T04:33:38;102815.01;;;12.78;75.83
69351;BME280;57106;51.446;-2.606;2023-05-25T04:36:04;102814.48;;;12.87;75.79
69351;BME280;57106;51.446;-2.606;2023-05-25T04:38:29;102816.34;;;12.84;76.20
69351;BME280;57106;51.446;-2.606;2023-05-25T04:40:56;102819.15;;;12.86;75.65
69351;BME280;57106;51.446;-2.606;2023-05-25T04:43:20;102821.21;;;12.85;75.82
69351;BME280;57106;51.446;-2.606;2023-05-25T04:45:46;102825.71;;;12.59;77.03
69351;BME280;57106;51.446;-2.606;2023-05-25T04:48:12;102825.10;;;12.89;76.15
69351;BME280;57106;51.446;-2.606;2023-05-25T04:50:37;102822.71;;;12.79;76.08
69351;BME280;57106;51.446;-2.606;2023-05-25T04:53:03;102825.15;;;12.73;76.59
69351;BME280;57106;51.446;-2.606;2023-05-25T04:55:28;102827.25;;;12.55;77.38
69351;BME280;57106;51.446;-2.606;2023-05-25T04:57:54;102824.32;;;12.82;76.54
69351;BME280;57106;51.446;-2.606;2023-05-25T05:00:20;102831.24;;;12.65;77.23
69351;BME280;57106;51.446;-2.606;2023-05-25T05:02:45;102824.56;;;13.00;75.80
69351;BME280;57106;51.446;-2.606;2023-05-25T05:05:10;102829.59;;;13.34;74.51
69351;BME280;57106;51.446;-2.606;2023-05-25T05:07:36;102827.50;;;13.56;73.30
69351;BME280;57106;51.446;-2.606;2023-05-25T05:10:01;102834.93;;;14.01;72.05
69351;BME280;57106;51.446;-2.606;2023-05-25T05:12:27;102834.94;;;13.95;71.88
69351;BME280;57106;51.446;-2.606;2023-05-25T05:14:52;102839.77;;;14.41;70.67
69351;BME280;57106;51.446;-2.606;2023-05-25T05:17:18;102839.33;;;14.29;70.74
69351;BME280;57106;51.446;-2.606;2023-05-25T05:19:43;102841.03;;;14.48;69.79
69351;BME280;57106;51.446;-2.606;2023-05-25T05:22:08;102843.20;;;14.69;69.39
69351;BME280;57106;51.446;-2.606;2023-05-25T05:24:34;102841.09;;;14.65;69.36
69351;BME280;57106;51.446;-2.606;2023-05-25T05:26:59;102842.54;;;14.54;69.70
69351;BME280;57106;51.446;-2.606;2023-05-25T05:29:25;102841.43;;;14.75;68.88
69351;BME280;57106;51.446;-2.606;2023-05-25T05:31:50;102840.57;;;15.10;68.02
69351;BME280;57106;51.446;-2.606;2023-05-25T05:34:16;102845.11;;;15.24;67.59
69351;BME280;57106;51.446;-2.606;2023-05-25T05:36:41;102848.84;;;15.23;67.52
69351;BME280;57106;51.446;-2.606;2023-05-25T05:39:07;102851.42;;;15.27;67.39
69351;BME280;57106;51.446;-2.606;2023-05-25T05:41:32;102857.82;;;15.53;66.20
69351;BME280;57106;51.446;-2.606;2023-05-25T05:43:58;102851.20;;;15.10;68.03
69351;BME280;57106;51.446;-2.606;2023-05-25T05:46:23;102852.25;;;15.11;67.75
69351;BME280;57106;51.446;-2.606;2023-05-25T05:48:49;102850.21;;;15.22;67.80
69351;BME280;57106;51.446;-2.606;2023-05-25T05:51:15;102854.81;;;15.58;66.39
69351;BME280;57106;51.446;-2.606;2023-05-25T05:53:42;102850.33;;;15.88;65.48
69351;BME280;57106;51.446;-2.606;2023-05-25T05:56:05;102852.32;;;15.78;65.04
69351;BME280;57106;51.446;-2.606;2023-05-25T05:58:31;102862.73;;;15.01;67.75
69351;BME280;57106;51.446;-2.606;2023-05-25T06:00:56;102863.15;;;14.73;68.64
69351;BME280;57106;51.446;-2.606;2023-05-25T06:03:22;102864.76;;;14.79;69.00
69351;BME280;57106;51.446;-2.606;2023-05-25T06:05:47;102866.84;;;14.48;69.78
69351;BME280;57106;51.446;-2.606;2023-05-25T06:08:13;102866.50;;;14.63;69.66
69351;BME280;57106;51.446;-2.606;2023-05-25T06:10:38;102865.54;;;14.44;70.08
69351;BME280;57106;51.446;-2.606;2023-05-25T06:13:04;102869.56;;;14.67;69.51
69351;BME280;57106;51.446;-2.606;2023-05-25T06:15:29;102866.78;;;14.91;69.10
69351;BME280;57106;51.446;-2.606;2023-05-25T06:17:55;102863.05;;;14.76;68.98
69351;BME280;57106;51.446;-2.606;2023-05-25T06:20:21;102863.46;;;15.49;66.80
69351;BME280;57106;51.446;-2.606;2023-05-25T06:22:46;102863.91;;;15.12;68.13
69351;BME280;57106;51.446;-2.606;2023-05-25T06:25:11;102861.89;;;15.26;67.61
69351;BME280;57106;51.446;-2.606;2023-05-25T06:27:37;102864.83;;;15.23;67.41
69351;BME280;57106;51.446;-2.606;2023-05-25T06:30:08;102870.72;;;15.09;67.68
69351;BME280;57106;51.446;-2.606;2023-05-25T06:32:27;102867.73;;;15.34;67.38
69351;BME280;57106;51.446;-2.606;2023-05-25T06:34:58;102868.46;;;15.51;66.52
69351;BME280;57106;51.446;-2.606;2023-05-25T06:37:19;102867.44;;;15.72;66.11
69351;BME280;57106;51.446;-2.606;2023-05-25T06:39:44;102865.33;;;15.66;65.86
69351;BME280;57106;51.446;-2.606;2023-05-25T06:42:10;102862.93;;;16.14;64.23
69351;BME280;57106;51.446;-2.606;2023-05-25T06:44:34;102870.87;;;15.90;64.92
69351;BME280;57106;51.446;-2.606;2023-05-25T06:47:00;102874.66;;;15.63;65.75
69351;BME280;57106;51.446;-2.606;2023-05-25T06:49:25;102875.54;;;15.33;66.92
69351;BME280;57106;51.446;-2.606;2023-05-25T06:51:51;102874.82;;;15.43;66.32
69351;BME280;57106;51.446;-2.606;2023-05-25T06:54:17;102874.91;;;15.35;66.37
69351;BME280;57106;51.446;-2.606;2023-05-25T06:56:42;102874.86;;;15.53;66.20
69351;BME280;57106;51.446;-2.606;2023-05-25T06:59:07;102880.58;;;15.44;66.09
69351;BME280;57106;51.446;-2.606;2023-05-25T07:01:33;102884.61;;;15.55;66.13
69351;BME280;57106;51.446;-2.606;2023-05-25T07:03:58;102884.28;;;15.47;66.26
69351;BME280;57106;51.446;-2.606;2023-05-25T07:06:24;102891.22;;;15.67;65.41
69351;BME280;57106;51.446;-2.606;2023-05-25T07:08:49;102896.39;;;15.58;65.79
69351;BME280;57106;51.446;-2.606;2023-05-25T07:11:15;102903.76;;;15.62;65.45
69351;BME280;57106;51.446;-2.606;2023-05-25T07:13:40;102898.52;;;15.57;65.81
69351;BME280;57106;51.446;-2.606;2023-05-25T07:16:06;102897.06;;;15.55;66.04
69351;BME280;57106;51.446;-2.606;2023-05-25T07:18:31;102896.62;;;15.78;66.01
69351;BME280;57106;51.446;-2.606;2023-05-25T07:20:57;102893.52;;;16.11;64.79
69351;BME280;57106;51.446;-2.606;2023-05-25T07:23:22;102895.34;;;16.12;64.99
69351;BME280;57106;51.446;-2.606;2023-05-25T07:25:48;102899.02;;;15.89;64.96
69351;BME280;57106;51.446;-2.606;2023-05-25T07:28:13;102899.48;;;15.81;65.75
69351;BME280;57106;51.446;-2.606;2023-05-25T07:30:39;102892.00;;;15.77;65.85
69351;BME280;57106;51.446;-2.606;2023-05-25T07:33:07;102899.03;;;15.88;65.33
69351;BME280;57106;51.446;-2.606;2023-05-25T07:35:30;102898.29;;;15.81;65.07
69351;BME280;57106;51.446;-2.606;2023-05-25T07:37:56;102897.54;;;16.10;64.79
69351;BME280;57106;51.446;-2.606;2023-05-25T07:40:21;102894.76;;;16.18;64.09
69351;BME280;57106;51.446;-2.606;2023-05-25T07:42:46;102895.43;;;16.34;63.13
69351;BME280;57106;51.446;-2.606;2023-05-25T07:45:11;102896.80;;;16.35;63.25
69351;BME280;57106;51.446;-2.606;2023-05-25T07:47:37;102893.67;;;16.42;62.74
69351;BME280;57106;51.446;-2.606;2023-05-25T07:50:02;102891.04;;;16.29;63.21
69351;BME280;57106;51.446;-2.606;2023-05-25T07:52:28;102893.03;;;16.51;63.09
69351;BME280;57106;51.446;-2.606;2023-05-25T07:54:53;102895.49;;;16.71;61.61
69351;BME280;57106;51.446;-2.606;2023-05-25T07:57:19;102895.66;;;16.80;61.15
69351;BME280;57106;51.446;-2.606;2023-05-25T07:59:44;102900.43;;;16.80;61.36
69351;BME280;57106;51.446;-2.606;2023-05-25T08:02:10;102904.77;;;16.73;61.13
69351;BME280;57106;51.446;-2.606;2023-05-25T08:04:35;102903.39;;;16.71;62.00
69351;BME280;57106;51.446;-2.606;2023-05-25T08:07:00;102906.46;;;16.70;62.00
69351;BME280;57106;51.446;-2.606;2023-05-25T08:09:26;102909.55;;;17.30;60.06
69351;BME280;57106;51.446;-2.606;2023-05-25T08:12:01;102915.08;;;17.21;59.85
69351;BME280;57106;51.446;-2.606;2023-05-25T08:14:21;102920.73;;;16.92;59.69
69351;BME280;57106;51.446;-2.606;2023-05-25T08:16:42;102915.97;;;17.03;59.56
69351;BME280;57106;51.446;-2.606;2023-05-25T08:19:13;102920.44;;;17.36;58.19
69351;BME280;57106;51.446;-2.606;2023-05-25T08:21:33;102916.71;;;16.99;59.39
69351;BME280;57106;51.446;-2.606;2023-05-25T08:23:58;102922.47;;;17.50;59.08
69351;BME280;57106;51.446;-2.606;2023-05-25T08:26:24;102927.19;;;18.11;57.27
69351;BME280;57106;51.446;-2.606;2023-05-25T08:28:49;102927.10;;;17.41;58.28
69351;BME280;57106;51.446;-2.606;2023-05-25T08:31:15;102920.38;;;17.36;58.17
69351;BME280;57106;51.446;-2.606;2023-05-25T08:33:40;102916.82;;;17.86;57.72
69351;BME280;57106;51.446;-2.606;2023-05-25T08:45:48;102924.32;;;17.81;58.04
69351;BME280;57106;51.446;-2.606;2023-05-25T08:48:14;102925.12;;;17.86;56.96
69351;BME280;57106;51.446;-2.606;2023-05-25T08:50:39;102935.61;;;17.77;57.32
69351;BME280;57106;51.446;-2.606;2023-05-25T08:53:04;102933.45;;;17.80;57.71
69351;BME280;57106;51.446;-2.606;2023-05-25T08:55:35;102931.00;;;17.95;57.43
69351;BME280;57106;51.446;-2.606;2023-05-25T08:57:59;102930.10;;;17.88;57.24
69351;BME280;57106;51.446;-2.606;2023-05-25T09:00:27;102930.39;;;18.07;57.22
69351;BME280;57106;51.446;-2.606;2023-05-25T09:02:49;102931.44;;;18.10;56.56
69351;BME280;57106;51.446;-2.606;2023-05-25T09:05:12;102935.85;;;18.21;56.25
69351;BME280;57106;51.446;-2.606;2023-05-25T09:10:02;102929.98;;;18.60;55.55
69351;BME280;57106;51.446;-2.606;2023-05-25T09:12:29;102928.87;;;18.68;55.37
69351;BME280;57106;51.446;-2.606;2023-05-25T09:14:52;102931.66;;;18.81;55.27
69351;BME280;57106;51.446;-2.606;2023-05-25T09:17:17;102932.39;;;18.42;56.14
69351;BME280;57106;51.446;-2.606;2023-05-25T09:19:44;102932.56;;;18.67;55.46
69351;BME280;57106;51.446;-2.606;2023-05-25T09:22:09;102938.00;;;19.04;54.46
69351;BME280;57106;51.446;-2.606;2023-05-25T09:24:34;102932.81;;;18.70;55.01
69351;BME280;57106;51.446;-2.606;2023-05-25T09:27:00;102933.79;;;18.41;55.93
69351;BME280;57106;51.446;-2.606;2023-05-25T09:29:25;102931.11;;;18.22;56.73
69351;BME280;57106;51.446;-2.606;2023-05-25T09:31:52;102927.89;;;18.11;56.06
69351;BME280;57106;51.446;-2.606;2023-05-25T09:34:15;102924.65;;;18.54;55.46
69351;BME280;57106;51.446;-2.606;2023-05-25T09:36:41;102928.38;;;18.67;54.97
69351;BME280;57106;51.446;-2.606;2023-05-25T09:39:08;102923.42;;;18.67;54.37
69351;BME280;57106;51.446;-2.606;2023-05-25T09:41:33;102928.08;;;17.92;56.55
69351;BME280;57106;51.446;-2.606;2023-05-25T09:43:57;102925.17;;;18.13;55.84
69351;BME280;57106;51.446;-2.606;2023-05-25T09:46:24;102922.59;;;18.27;54.80
69351;BME280;57106;51.446;-2.606;2023-05-25T09:48:49;102923.59;;;18.65;54.45
69351;BME280;57106;51.446;-2.606;2023-05-25T09:53:40;102922.66;;;18.46;54.92
69351;BME280;57106;51.446;-2.606;2023-05-25T09:56:12;102914.60;;;18.69;54.57
69351;BME280;57106;51.446;-2.606;2023-05-25T10:15:29;102921.29;;;18.14;55.18
69351;BME280;57106;51.446;-2.606;2023-05-25T10:17:54;102916.46;;;18.08;55.42
69351;BME280;57106;51.446;-2.606;2023-05-25T10:20:20;102910.19;;;18.59;54.79
69351;BME280;57106;51.446;-2.606;2023-05-25T10:22:49;102914.16;;;18.46;54.97
69351;BME280;57106;51.446;-2.606;2023-05-25T10:25:16;102916.40;;;18.65;54.68
69351;BME280;57106;51.446;-2.606;2023-05-25T10:27:39;102921.17;;;18.67;54.47
69351;BME280;57106;51.446;-2.606;2023-05-25T10:30:01;102920.60;;;18.86;53.97
69351;BME280;57106;51.446;-2.606;2023-05-25T10:32:27;102910.56;;;18.71;53.98
69351;BME280;57106;51.446;-2.606;2023-05-25T10:34:52;102910.53;;;19.14;53.41
69351;BME280;57106;51.446;-2.606;2023-05-25T10:37:17;102912.48;;;19.08;53.46
69351;BME280;57106;51.446;-2.606;2023-05-25T10:39:44;102915.01;;;19.41;52.96
69351;BME280;57106;51.446;-2.606;2023-05-25T10:42:08;102926.02;;;19.34;53.32
69351;BME280;57106;51.446;-2.606;2023-05-25T10:44:33;102918.75;;;19.35;52.71
69351;BME280;57106;51.446;-2.606;2023-05-25T10:47:01;102917.69;;;19.27;52.17
69351;BME280;57106;51.446;-2.606;2023-05-25T10:49:30;102913.53;;;19.41;51.04
69351;BME280;57106;51.446;-2.606;2023-05-25T10:51:56;102913.19;;;19.27;51.37
69351;BME280;57106;51.446;-2.606;2023-05-25T10:54:15;102908.58;;;19.13;51.24
69351;BME280;57106;51.446;-2.606;2023-05-25T10:59:06;102907.15;;;19.42;50.33
69351;BME280;57106;51.446;-2.606;2023-05-25T11:01:31;102911.71;;;19.03;52.06
69351;BME280;57106;51.446;-2.606;2023-05-25T11:06:40;102924.71;;;19.61;51.78
69351;BME280;57106;51.446;-2.606;2023-05-25T11:08:50;102916.36;;;19.30;52.10
69351;BME280;57106;51.446;-2.606;2023-05-25T11:11:13;102911.89;;;19.32;52.69
69351;BME280;57106;51.446;-2.606;2023-05-25T11:13:43;102907.05;;;19.29;52.85
69351;BME280;57106;51.446;-2.606;2023-05-25T11:16:12;102905.75;;;19.47;53.04
69351;BME280;57106;51.446;-2.606;2023-05-25T11:18:37;102917.47;;;19.33;53.21
69351;BME280;57106;51.446;-2.606;2023-05-25T11:25:50;102909.46;;;19.37;53.27
69351;BME280;57106;51.446;-2.606;2023-05-25T11:28:10;102906.18;;;19.25;53.82
69351;BME280;57106;51.446;-2.606;2023-05-25T11:30:38;102907.59;;;19.63;53.27
69351;BME280;57106;51.446;-2.606;2023-05-25T11:33:03;102899.45;;;19.92;52.29
69351;BME280;57106;51.446;-2.606;2023-05-25T11:35:26;102899.56;;;19.82;52.83
69351;BME280;57106;51.446;-2.606;2023-05-25T11:37:52;102899.26;;;20.08;52.12
69351;BME280;57106;51.446;-2.606;2023-05-25T11:40:17;102880.95;;;19.88;52.18
69351;BME280;57106;51.446;-2.606;2023-05-25T11:42:46;102898.26;;;19.77;52.68
69351;BME280;57106;51.446;-2.606;2023-05-25T11:45:10;102890.24;;;19.63;53.04
69351;BME280;57106;51.446;-2.606;2023-05-25T11:47:33;102887.66;;;20.04;52.50
69351;BME280;57106;51.446;-2.606;2023-05-25T11:49:59;102883.44;;;20.39;51.09
69351;BME280;57106;51.446;-2.606;2023-05-25T11:52:24;102887.27;;;20.01;51.21
69351;BME280;57106;51.446;-2.606;2023-05-25T11:54:49;102883.20;;;20.27;50.80
69351;BME280;57106;51.446;-2.606;2023-05-25T11:57:16;102889.82;;;20.32;50.84
69351;BME280;57106;51.446;-2.606;2023-05-25T11:59:46;102887.08;;;19.96;51.84
69351;BME280;57106;51.446;-2.606;2023-05-25T12:02:05;102894.82;;;19.91;52.01
69351;BME280;57106;51.446;-2.606;2023-05-25T12:04:32;102885.38;;;19.82;52.13
69351;BME280;57106;51.446;-2.606;2023-05-25T12:07:02;102882.03;;;19.79;52.57
69351;BME280;57106;51.446;-2.606;2023-05-25T12:09:21;102881.60;;;20.03;52.40
69351;BME280;57106;51.446;-2.606;2023-05-25T12:11:58;102879.96;;;20.04;51.24
69351;BME280;57106;51.446;-2.606;2023-05-25T12:14:14;102884.63;;;20.50;50.53
69351;BME280;57106;51.446;-2.606;2023-05-25T12:16:38;102879.44;;;20.31;50.68
69351;BME280;57106;51.446;-2.606;2023-05-25T12:19:03;102874.96;;;20.77;50.16
69351;BME280;57106;51.446;-2.606;2023-05-25T12:21:29;102879.53;;;20.66;50.06
69351;BME280;57106;51.446;-2.606;2023-05-25T12:23:54;102882.78;;;20.66;49.94
69351;BME280;57106;51.446;-2.606;2023-05-25T12:26:19;102887.14;;;20.73;49.58
69351;BME280;57106;51.446;-2.606;2023-05-25T12:28:58;102869.88;;;20.79;49.63
69351;BME280;57106;51.446;-2.606;2023-05-25T12:31:20;102876.53;;;21.14;49.21
69351;BME280;57106;51.446;-2.606;2023-05-25T12:41:05;102873.14;;;20.95;48.49
69351;BME280;57106;51.446;-2.606;2023-05-25T12:43:17;102888.97;;;20.76;49.13
69351;BME280;57106;51.446;-2.606;2023-05-25T12:45:42;102877.32;;;20.88;49.11
69351;BME280;57106;51.446;-2.606;2023-05-25T12:48:12;102881.59;;;20.32;49.07
69351;BME280;57106;51.446;-2.606;2023-05-25T12:50:33;102879.27;;;20.58;49.39
69351;BME280;57106;51.446;-2.606;2023-05-25T12:53:01;102869.75;;;20.51;49.62
69351;BME280;57106;51.446;-2.606;2023-05-25T12:55:25;102872.33;;;20.61;49.51
69351;BME280;57106;51.446;-2.606;2023-05-25T13:00:14;102870.81;;;20.80;49.04
69351;BME280;57106;51.446;-2.606;2023-05-25T13:02:42;102872.62;;;20.85;48.41
69351;BME280;57106;51.446;-2.606;2023-05-25T13:07:30;102868.30;;;21.05;48.20
69351;BME280;57106;51.446;-2.606;2023-05-25T13:09:55;102873.87;;;21.00;48.42
69351;BME280;57106;51.446;-2.606;2023-05-25T13:12:21;102867.63;;;21.11;47.86
69351;BME280;57106;51.446;-2.606;2023-05-25T13:14:56;102873.54;;;20.91;48.80
69351;BME280;57106;51.446;-2.606;2023-05-25T13:17:12;102867.93;;;20.53;49.45
69351;BME280;57106;51.446;-2.606;2023-05-25T13:19:37;102870.70;;;20.53;49.32
69351;BME280;57106;51.446;-2.606;2023-05-25T13:22:03;102867.17;;;20.68;48.08
69351;BME280;57106;51.446;-2.606;2023-05-25T13:24:28;102865.53;;;20.72;48.27
69351;BME280;57106;51.446;-2.606;2023-05-25T13:26:53;102863.41;;;20.73;48.58
69351;BME280;57106;51.446;-2.606;2023-05-25T13:29:18;102861.86;;;20.82;48.65
69351;BME280;57106;51.446;-2.606;2023-05-25T13:31:44;102850.58;;;21.44;46.46
69351;BME280;57106;51.446;-2.606;2023-05-25T13:34:09;102851.93;;;21.86;46.15
69351;BME280;57106;51.446;-2.606;2023-05-25T13:36:34;102855.62;;;21.75;46.51
69351;BME280;57106;51.446;-2.606;2023-05-25T13:39:00;102856.61;;;21.67;46.94
69351;BME280;57106;51.446;-2.606;2023-05-25T13:41:25;102855.06;;;21.09;48.11
69351;BME280;57106;51.446;-2.606;2023-05-25T13:43:50;102853.91;;;21.22;48.25
69351;BME280;57106;51.446;-2.606;2023-05-25T13:46:16;102852.04;;;20.98;48.36
69351;BME280;57106;51.446;-2.606;2023-05-25T13:48:41;102846.77;;;20.98;48.60
69351;BME280;57106;51.446;-2.606;2023-05-25T13:51:07;102841.07;;;21.04;48.44
69351;BME280;57106;51.446;-2.606;2023-05-25T13:53:32;102845.92;;;21.33;47.64
69351;BME280;57106;51.446;-2.606;2023-05-25T13:55:57;102838.05;;;21.27;46.91
69351;BME280;57106;51.446;-2.606;2023-05-25T13:58:23;102834.90;;;21.64;46.64